Time;durP1;ratioP1;P1;durP2;ratioP2;P2;SDS_P1;SDS_P2;PMS_P1;PMS_P2;Temp;Humidity;BMP_temperature;BMP_pressure;BME280_temperature;BME280_humidity;BME280_pressure;Samples;Min_cycle;Max_cycle;Signal;HPM_P1;HPM_P2
2023/06/04 00:00:27;;;;;;;3.65;2.65;;;;;;;;;;5055699;28;20017;-86
2023/06/04 00:02:53;;;;;;;1.88;1.42;;;;;;;;;;5060468;28;20032;-85
2023/06/04 00:05:19;;;;;;;3.00;1.98;;;;;;;;;;5063970;28;21374;-86
2023/06/04 00:07:44;;;;;;;2.53;1.70;;;;;;;;;;5067257;28;20031;-87
2023/06/04 00:10:10;;;;;;;2.72;1.70;;;;;;;;;;5058676;28;20111;-87
2023/06/04 00:12:36;;;;;;;3.72;1.52;;;;;;;;;;5063314;28;20012;-88
2023/06/04 00:15:09;;;;;;;2.30;2.05;;;;;;;;;;5055126;28;20558;-88
2023/06/04 00:17:35;;;;;;;3.15;1.52;;;;;;;;;;5054748;28;20425;-87
2023/06/04 00:20:01;;;;;;;3.95;2.22;;;;;;;;;;5060852;28;20106;-88
2023/06/04 00:22:27;;;;;;;2.15;1.92;;;;;;;;;;5064299;28;20020;-86
2023/06/04 00:24:52;;;;;;;2.45;1.30;;;;;;;;;;5058259;28;20075;-86
2023/06/04 00:27:18;;;;;;;2.70;1.67;;;;;;;;;;5059045;28;20118;-89
2023/06/04 00:29:46;;;;;;;4.30;2.47;;;;;;;;;;5062642;28;20024;-89
2023/06/04 00:32:11;;;;;;;4.15;2.17;;;;;;;;;;5066686;28;20040;-87
2023/06/04 00:34:37;;;;;;;4.07;2.70;;;;;;;;;;5062001;28;20648;-87
2023/06/04 00:37:02;;;;;;;5.18;2.45;;;;;;;;;;5054883;28;20492;-84
2023/06/04 00:39:29;;;;;;;3.13;2.03;;;;;;;;;;5056506;28;20024;-85
2023/06/04 00:41:54;;;;;;;3.22;1.83;;;;;;;;;;5060289;28;20028;-85
2023/06/04 00:44:21;;;;;;;2.17;1.98;;;;;;;;;;5056211;28;20091;-83
2023/06/04 00:46:49;;;;;;;2.90;1.75;;;;;;;;;;5055960;28;20040;-85
2023/06/04 00:49:15;;;;;;;3.33;1.73;;;;;;;;;;5053773;28;20123;-86
2023/06/04 00:51:40;;;;;;;1.38;1.25;;;;;;;;;;5053777;28;20067;-85
2023/06/04 00:54:17;;;;;;;4.00;2.42;;;;;;;;;;5060778;28;20047;-87
2023/06/04 00:56:44;;;;;;;3.90;2.60;;;;;;;;;;5061488;28;20466;-85
2023/06/04 00:59:20;;;;;;;3.30;2.80;;;;;;;;;;5060437;28;20025;-85
2023/06/04 01:01:58;;;;;;;4.32;2.00;;;;;;;;;;5055325;28;20469;-84
2023/06/04 01:04:30;;;;;;;3.13;1.77;;;;;;;;;;5055059;28;20368;-85
2023/06/04 01:06:58;;;;;;;2.95;1.88;;;;;;;;;;5064212;28;20049;-85
2023/06/04 01:09:27;;;;;;;2.53;1.60;;;;;;;;;;5061729;28;20083;-88
2023/06/04 01:11:54;;;;;;;1.98;1.70;;;;;;;;;;5062217;28;20074;-87
2023/06/04 01:14:20;;;;;;;3.42;2.13;;;;;;;;;;5068215;28;20400;-87
2023/06/04 01:17:02;;;;;;;2.70;1.88;;;;;;;;;;5058611;28;20029;-86
2023/06/04 01:20:04;;;;;;;2.33;1.65;;;;;;;;;;5056845;28;20159;-86
2023/06/04 01:22:35;;;;;;;2.78;2.15;;;;;;;;;;5058150;28;20107;-85
2023/06/04 01:25:25;;;;;;;3.25;2.03;;;;;;;;;;5062617;28;20032;-85
2023/06/04 01:27:55;;;;;;;2.92;2.08;;;;;;;;;;5060259;28;20451;-87
2023/06/04 01:30:31;;;;;;;;;;;;;;;;;;5065881;28;20039;-88
2023/06/04 01:33:02;;;;;;;3.88;2.50;;;;;;;;;;5058990;28;20383;-86
2023/06/04 01:35:31;;;;;;;4.82;3.20;;;;;;;;;;5051112;28;20102;-88
2023/06/04 01:37:59;;;;;;;5.60;3.08;;;;;;;;;;5060783;28;20075;-87
2023/06/04 01:40:28;;;;;;;4.75;2.53;;;;;;;;;;5064344;28;20032;-88
2023/06/04 01:42:58;;;;;;;3.25;1.88;;;;;;;;;;5054116;28;20035;-88
2023/06/04 01:45:27;;;;;;;3.15;1.85;;;;;;;;;;5060060;28;20485;-87
2023/06/04 01:47:53;;;;;;;5.00;3.08;;;;;;;;;;5057486;28;20032;-87
2023/06/04 01:50:19;;;;;;;3.28;1.70;;;;;;;;;;5053105;28;20428;-88
2023/06/04 01:52:50;;;;;;;4.03;2.67;;;;;;;;;;5058035;28;20087;-86
2023/06/04 01:55:17;;;;;;;4.70;2.85;;;;;;;;;;5059571;28;20033;-86
2023/06/04 01:57:44;;;;;;;4.40;2.30;;;;;;;;;;5062991;28;20016;-85
2023/06/04 02:00:11;;;;;;;2.10;1.85;;;;;;;;;;5055831;28;20380;-87
2023/06/04 02:02:37;;;;;;;5.25;3.10;;;;;;;;;;5056582;28;20047;-88
2023/06/04 02:05:07;;;;;;;3.63;2.42;;;;;;;;;;5055458;28;20087;-88
2023/06/04 02:07:34;;;;;;;3.63;1.73;;;;;;;;;;5056569;28;20575;-88
2023/06/04 02:10:00;;;;;;;4.03;1.98;;;;;;;;;;5060556;28;20048;-84
2023/06/04 02:12:26;;;;;;;6.18;2.13;;;;;;;;;;5062804;28;20024;-86
2023/06/04 02:14:51;;;;;;;3.80;1.65;;;;;;;;;;5064085;28;20024;-87
2023/06/04 02:17:17;;;;;;;4.63;2.45;;;;;;;;;;5063231;28;20071;-87
2023/06/04 02:19:50;;;;;;;3.50;1.88;;;;;;;;;;5059959;28;20032;-87
2023/06/04 02:22:20;;;;;;;3.65;1.98;;;;;;;;;;5068421;28;20095;-88
2023/06/04 02:24:47;;;;;;;4.85;1.67;;;;;;;;;;5052199;28;20024;-87
2023/06/04 02:27:14;;;;;;;3.33;1.83;;;;;;;;;;5062315;28;20063;-86
2023/06/04 02:29:42;;;;;;;4.93;2.70;;;;;;;;;;5061886;28;20037;-86
2023/06/04 02:32:30;;;;;;;3.65;1.88;;;;;;;;;;5063061;28;20028;-89
2023/06/04 02:35:04;;;;;;;2.45;1.30;;;;;;;;;;5063586;28;20041;-92
2023/06/04 02:37:30;;;;;;;2.25;1.63;;;;;;;;;;5059810;28;20024;-86
2023/06/04 02:39:56;;;;;;;2.90;1.35;;;;;;;;;;5061669;28;20823;-85
2023/06/04 02:42:21;;;;;;;1.52;0.88;;;;;;;;;;5067754;28;20119;-86
2023/06/04 02:44:47;;;;;;;2.42;1.55;;;;;;;;;;5063107;28;20020;-87
2023/06/04 02:47:12;;;;;;;1.20;1.10;;;;;;;;;;5061443;28;20036;-86
2023/06/04 02:49:38;;;;;;;1.75;1.02;;;;;;;;;;5068500;28;20370;-84
2023/06/04 02:52:03;;;;;;;2.47;1.13;;;;;;;;;;5061887;28;20036;-86
2023/06/04 02:54:36;;;;;;;1.13;0.95;;;;;;;;;;5063458;28;20043;-87
2023/06/04 02:57:05;;;;;;;1.73;1.15;;;;;;;;;;5052556;28;20133;-86
2023/06/04 02:59:32;;;;;;;2.83;1.30;;;;;;;;;;5059832;28;20020;-87
2023/06/04 03:02:00;;;;;;;1.35;0.85;;;;;;;;;;5063106;28;20493;-86
2023/06/04 03:04:34;;;;;;;1.70;1.15;;;;;;;;;;5062211;28;20091;-86
2023/06/04 03:07:04;;;;;;;1.35;1.10;;;;;;;;;;5052383;28;20060;-86
2023/06/04 03:09:33;;;;;;;1.00;0.88;;;;;;;;;;5057870;28;20538;-86
2023/06/04 03:12:02;;;;;;;1.50;1.00;;;;;;;;;;5061976;28;20434;-87
2023/06/04 03:14:32;;;;;;;1.80;1.27;;;;;;;;;;5059895;28;20446;-87
2023/06/04 03:17:00;;;;;;;1.73;0.90;;;;;;;;;;5066549;28;20496;-85
2023/06/04 03:19:27;;;;;;;1.58;1.00;;;;;;;;;;5062900;28;20036;-86
2023/06/04 03:21:53;;;;;;;0.95;0.80;;;;;;;;;;5054680;28;20029;-86
2023/06/04 03:24:19;;;;;;;1.48;0.95;;;;;;;;;;5062987;28;20744;-86
2023/06/04 03:26:45;;;;;;;2.20;1.25;;;;;;;;;;5062808;28;20036;-85
2023/06/04 03:29:11;;;;;;;2.10;1.65;;;;;;;;;;5060858;28;20071;-89
2023/06/04 03:31:37;;;;;;;3.03;1.10;;;;;;;;;;5058475;28;20035;-86
2023/06/04 03:34:02;;;;;;;3.92;1.88;;;;;;;;;;5063909;28;20540;-87
2023/06/04 03:36:37;;;;;;;1.90;1.23;;;;;;;;;;5060395;28;20472;-89
2023/06/04 03:39:04;;;;;;;3.35;1.90;;;;;;;;;;5065250;28;20036;-87
2023/06/04 03:41:30;;;;;;;2.25;1.02;;;;;;;;;;5059469;28;20033;-87
2023/06/04 03:43:58;;;;;;;2.45;1.17;;;;;;;;;;5055042;28;20091;-85
2023/06/04 03:46:29;;;;;;;1.08;0.98;;;;;;;;;;5053129;28;20085;-87
2023/06/04 03:48:54;;;;;;;1.38;0.90;;;;;;;;;;5064444;28;20027;-86
2023/06/04 03:51:20;;;;;;;1.73;1.13;;;;;;;;;;5060478;28;20024;-86
2023/06/04 03:53:51;;;;;;;1.40;1.00;;;;;;;;;;5061689;28;20089;-87
2023/06/04 03:56:16;;;;;;;2.90;1.08;;;;;;;;;;5056785;28;20082;-86
2023/06/04 03:58:42;;;;;;;1.63;1.05;;;;;;;;;;5060185;28;20021;-86
2023/06/04 04:01:10;;;;;;;2.60;1.17;;;;;;;;;;5066306;28;20039;-88
2023/06/04 04:03:36;;;;;;;1.48;0.98;;;;;;;;;;5059863;28;20044;-88
2023/06/04 04:06:05;;;;;;;1.80;0.93;;;;;;;;;;5056596;28;20495;-88
2023/06/04 04:08:31;;;;;;;1.17;0.85;;;;;;;;;;5058602;28;20039;-86
2023/06/04 04:11:00;;;;;;;0.68;0.60;;;;;;;;;;5067900;28;20028;-88
2023/06/04 04:13:25;;;;;;;1.95;1.13;;;;;;;;;;5050448;28;20098;-86
2023/06/04 04:15:52;;;;;;;1.25;1.10;;;;;;;;;;5055266;28;20071;-88
2023/06/04 04:18:21;;;;;;;1.55;1.15;;;;;;;;;;5057902;28;20036;-88
2023/06/04 04:20:47;;;;;;;2.53;1.35;;;;;;;;;;5045753;28;20392;-85
2023/06/04 04:23:13;;;;;;;4.05;2.55;;;;;;;;;;5057221;28;20128;-86
2023/06/04 04:25:39;;;;;;;2.40;1.50;;;;;;;;;;5050026;28;20040;-85
2023/06/04 04:28:06;;;;;;;1.83;1.33;;;;;;;;;;5057679;28;20394;-87
2023/06/04 04:30:34;;;;;;;1.70;1.38;;;;;;;;;;5083505;28;20081;-88
2023/06/04 04:33:00;;;;;;;1.42;1.05;;;;;;;;;;5048807;28;20024;-86
2023/06/04 04:35:26;;;;;;;0.88;0.77;;;;;;;;;;5051194;28;20060;-86
2023/06/04 04:37:51;;;;;;;0.82;0.77;;;;;;;;;;5059366;28;20468;-84
2023/06/04 04:40:17;;;;;;;2.45;1.65;;;;;;;;;;5058819;28;20032;-85
2023/06/04 04:42:42;;;;;;;1.83;1.17;;;;;;;;;;5054235;28;20524;-86
2023/06/04 04:45:09;;;;;;;1.48;1.00;;;;;;;;;;5060339;28;20466;-86
2023/06/04 04:47:34;;;;;;;2.42;1.77;;;;;;;;;;5049713;28;20039;-88
2023/06/04 04:50:00;;;;;;;2.28;1.50;;;;;;;;;;5052923;28;20377;-86
2023/06/04 04:52:27;;;;;;;1.65;1.30;;;;;;;;;;5058985;28;20029;-87
2023/06/04 04:54:57;;;;;;;2.83;1.70;;;;;;;;;;5055612;28;20047;-87
2023/06/04 04:57:23;;;;;;;1.85;1.52;;;;;;;;;;5065679;28;20028;-88
2023/06/04 04:59:49;;;;;;;0.95;0.73;;;;;;;;;;5064507;28;20037;-89
2023/06/04 05:02:15;;;;;;;2.03;1.48;;;;;;;;;;5056575;28;20028;-88
2023/06/04 05:04:40;;;;;;;1.35;1.05;;;;;;;;;;5060305;28;20047;-92
2023/06/04 05:07:06;;;;;;;2.35;1.45;;;;;;;;;;5060736;28;20457;-86
2023/06/04 05:09:31;;;;;;;2.83;1.52;;;;;;;;;;5054069;28;20025;-88
2023/06/04 05:11:57;;;;;;;1.25;1.13;;;;;;;;;;5059068;28;20029;-90
2023/06/04 05:14:23;;;;;;;1.77;1.48;;;;;;;;;;5060019;28;20124;-90
2023/06/04 05:16:48;;;;;;;2.65;1.77;;;;;;;;;;5057654;28;20054;-89
2023/06/04 05:19:16;;;;;;;1.10;1.00;;;;;;;;;;5061259;28;20099;-89
2023/06/04 05:21:43;;;;;;;1.80;1.23;;;;;;;;;;5050800;28;20025;-88
2023/06/04 05:24:09;;;;;;;1.95;1.60;;;;;;;;;;5053790;28;20029;-87
2023/06/04 05:26:35;;;;;;;3.22;1.77;;;;;;;;;;5041151;28;20033;-85
2023/06/04 05:29:01;;;;;;;2.78;1.88;;;;;;;;;;5050849;28;20056;-88
2023/06/04 05:31:27;;;;;;;2.25;1.60;;;;;;;;;;5057723;28;20075;-88
2023/06/04 05:33:52;;;;;;;1.63;1.40;;;;;;;;;;5059133;28;20488;-92
2023/06/04 05:36:19;;;;;;;2.10;1.50;;;;;;;;;;5053106;28;20102;-89
2023/06/04 05:38:44;;;;;;;2.28;1.48;;;;;;;;;;5060659;28;20024;-86
2023/06/04 05:41:11;;;;;;;6.70;1.60;;;;;;;;;;5048365;28;20086;-86
2023/06/04 05:43:37;;;;;;;2.65;2.17;;;;;;;;;;5050876;28;20115;-85
2023/06/04 05:46:02;;;;;;;2.08;1.48;;;;;;;;;;5053593;28;20029;-87
2023/06/04 05:48:28;;;;;;;2.40;1.77;;;;;;;;;;5054743;28;20024;-88
2023/06/04 05:50:53;;;;;;;1.55;1.30;;;;;;;;;;5053524;28;20021;-88
2023/06/04 05:53:19;;;;;;;2.33;1.42;;;;;;;;;;5059093;28;20423;-89
2023/06/04 05:55:44;;;;;;;4.53;1.67;;;;;;;;;;5055614;28;20037;-85
2023/06/04 05:58:10;;;;;;;2.50;1.55;;;;;;;;;;5051727;28;20111;-89
2023/06/04 06:00:35;;;;;;;2.50;1.80;;;;;;;;;;5047156;28;20044;-87
2023/06/04 06:03:01;;;;;;;1.52;1.10;;;;;;;;;;5054372;28;20037;-87
2023/06/04 06:05:26;;;;;;;3.78;1.75;;;;;;;;;;5055963;28;20070;-89
2023/06/04 06:07:52;;;;;;;2.53;1.63;;;;;;;;;;5062310;28;20032;-90
2023/06/04 06:10:18;;;;;;;3.70;1.80;;;;;;;;;;5054152;28;20039;-92
2023/06/04 06:12:43;;;;;;;3.25;1.70;;;;;;;;;;5057112;28;20075;-88
2023/06/04 06:15:09;;;;;;;2.28;1.63;;;;;;;;;;5057589;28;20756;-89
2023/06/04 06:17:35;;;;;;;2.03;1.40;;;;;;;;;;5060209;28;20024;-88
2023/06/04 06:20:01;;;;;;;2.25;1.75;;;;;;;;;;5060048;28;20025;-88
2023/06/04 06:22:27;;;;;;;2.97;2.25;;;;;;;;;;5055831;28;20025;-88
2023/06/04 06:24:52;;;;;;;2.03;1.33;;;;;;;;;;5058423;28;20033;-89
2023/06/04 06:27:18;;;;;;;2.15;1.95;;;;;;;;;;5047532;28;20049;-84
2023/06/04 06:29:44;;;;;;;2.85;1.80;;;;;;;;;;5056921;28;20455;-91
2023/06/04 06:32:10;;;;;;;1.70;1.58;;;;;;;;;;5056017;28;20040;-87
2023/06/04 06:34:37;;;;;;;2.55;1.30;;;;;;;;;;5059651;28;20449;-91
2023/06/04 06:37:02;;;;;;;2.40;1.80;;;;;;;;;;5057258;28;20107;-87
2023/06/04 06:39:28;;;;;;;1.90;1.45;;;;;;;;;;5056888;28;20171;-88
2023/06/04 06:41:53;;;;;;;2.60;1.80;;;;;;;;;;5053472;28;20021;-88
2023/06/04 06:44:19;;;;;;;1.75;1.45;;;;;;;;;;5067811;28;20020;-86
2023/06/04 06:46:44;;;;;;;2.05;1.42;;;;;;;;;;5055534;28;20021;-86
2023/06/04 06:49:10;;;;;;;4.47;2.55;;;;;;;;;;5048584;28;20029;-87
2023/06/04 06:51:35;;;;;;;2.03;1.48;;;;;;;;;;5047871;28;20112;-88
2023/06/04 06:54:00;;;;;;;1.60;1.45;;;;;;;;;;5060107;28;20033;-87
2023/06/04 06:56:26;;;;;;;2.53;1.88;;;;;;;;;;5050176;28;20021;-85
2023/06/04 06:58:51;;;;;;;2.17;1.65;;;;;;;;;;5053291;28;20025;-88
2023/06/04 07:01:17;;;;;;;2.70;1.88;;;;;;;;;;5056495;28;20047;-84
2023/06/04 07:03:43;;;;;;;4.10;1.90;;;;;;;;;;5050030;28;20388;-86
2023/06/04 07:06:08;;;;;;;1.60;1.40;;;;;;;;;;5059606;28;20529;-88
2023/06/04 07:08:35;;;;;;;2.10;1.30;;;;;;;;;;5065480;28;20026;-87
2023/06/04 07:11:01;;;;;;;2.60;1.77;;;;;;;;;;5044064;28;20501;-87
2023/06/04 07:13:27;;;;;;;2.83;1.92;;;;;;;;;;5060234;28;20086;-87
2023/06/04 07:15:53;;;;;;;2.40;1.67;;;;;;;;;;5063893;28;20071;-86
2023/06/04 07:18:19;;;;;;;2.42;1.65;;;;;;;;;;5054763;28;20809;-86
2023/06/04 07:20:44;;;;;;;1.80;1.40;;;;;;;;;;5045502;28;20034;-88
2023/06/04 07:23:10;;;;;;;2.28;1.30;;;;;;;;;;5059494;28;20433;-84
2023/06/04 07:25:35;;;;;;;4.57;2.05;;;;;;;;;;5057021;28;20025;-86
2023/06/04 07:28:03;;;;;;;2.15;1.50;;;;;;;;;;5065823;28;20064;-89
2023/06/04 07:30:31;;;;;;;6.45;2.10;;;;;;;;;;5044056;28;20017;-86
2023/06/04 07:32:57;;;;;;;2.22;1.88;;;;;;;;;;5055810;28;20021;-86
2023/06/04 07:35:22;;;;;;;2.25;1.42;;;;;;;;;;5049884;28;20480;-87
2023/06/04 07:37:48;;;;;;;2.08;1.58;;;;;;;;;;5057915;28;20425;-84
2023/06/04 07:40:15;;;;;;;2.53;1.88;;;;;;;;;;5060510;28;20537;-86
2023/06/04 07:42:42;;;;;;;2.28;1.52;;;;;;;;;;5066289;28;20024;-90
2023/06/04 07:45:08;;;;;;;2.25;1.67;;;;;;;;;;5052343;28;20078;-85
2023/06/04 07:47:34;;;;;;;2.75;1.77;;;;;;;;;;5058424;28;20032;-88
2023/06/04 07:50:00;;;;;;;2.80;2.05;;;;;;;;;;5053856;28;20111;-88
2023/06/04 07:52:26;;;;;;;6.38;2.20;;;;;;;;;;5063413;28;20533;-87
2023/06/04 07:54:51;;;;;;;3.63;1.77;;;;;;;;;;5053096;28;20388;-85
2023/06/04 07:57:17;;;;;;;3.25;2.20;;;;;;;;;;5053130;28;20033;-87
2023/06/04 07:59:42;;;;;;;3.15;2.25;;;;;;;;;;5058982;28;20019;-88
2023/06/04 08:02:08;;;;;;;3.00;2.00;;;;;;;;;;5062162;28;20024;-90
2023/06/04 08:04:33;;;;;;;4.00;2.17;;;;;;;;;;5061464;28;20039;-88
2023/06/04 08:06:59;;;;;;;3.47;2.05;;;;;;;;;;5053487;28;20025;-86
2023/06/04 08:09:25;;;;;;;2.70;1.73;;;;;;;;;;5056023;28;20033;-89
2023/06/04 08:11:51;;;;;;;4.00;2.25;;;;;;;;;;5054128;28;20025;-86
2023/06/04 08:14:16;;;;;;;2.80;2.20;;;;;;;;;;5053297;28;20422;-89
2023/06/04 08:16:42;;;;;;;3.10;2.40;;;;;;;;;;5055927;28;20558;-89
2023/06/04 08:19:07;;;;;;;3.08;2.38;;;;;;;;;;5060749;28;20029;-87
2023/06/04 08:21:34;;;;;;;4.75;2.35;;;;;;;;;;5057897;28;20036;-91
2023/06/04 08:24:00;;;;;;;3.60;1.75;;;;;;;;;;5058947;28;20063;-89
2023/06/04 08:26:26;;;;;;;4.13;2.45;;;;;;;;;;5056523;28;20024;-86
2023/06/04 08:28:53;;;;;;;2.75;2.03;;;;;;;;;;5062671;28;20489;-87
2023/06/04 08:31:18;;;;;;;3.25;1.83;;;;;;;;;;5059878;28;20452;-90
2023/06/04 08:33:47;;;;;;;4.00;2.83;;;;;;;;;;5058581;28;20108;-86
2023/06/04 08:36:13;;;;;;;5.25;2.60;;;;;;;;;;5052358;28;20079;-87
2023/06/04 08:38:40;;;;;;;4.82;3.00;;;;;;;;;;5063813;28;20024;-89
2023/06/04 08:41:26;;;;;;;4.90;2.97;;;;;;;;;;5059530;28;20039;-89
2023/06/04 08:43:54;;;;;;;3.88;2.80;;;;;;;;;;5058678;28;20017;-90
2023/06/04 08:46:20;;;;;;;6.18;3.22;;;;;;;;;;5059003;28;20033;-84
2023/06/04 08:48:49;;;;;;;5.63;2.17;;;;;;;;;;5062478;28;20507;-85
2023/06/04 08:51:15;;;;;;;5.20;2.33;;;;;;;;;;5058922;28;20027;-85
2023/06/04 08:53:42;;;;;;;3.75;2.22;;;;;;;;;;5058954;28;20489;-87
2023/06/04 08:56:08;;;;;;;3.35;2.30;;;;;;;;;;5059435;28;20027;-85
2023/06/04 08:58:36;;;;;;;4.70;2.38;;;;;;;;;;5055925;28;20028;-86
2023/06/04 09:01:02;;;;;;;4.28;2.35;;;;;;;;;;5060262;28;20503;-87
2023/06/04 09:03:31;;;;;;;3.75;2.17;;;;;;;;;;5053803;28;20439;-87
2023/06/04 09:06:10;;;;;;;2.90;2.08;;;;;;;;;;5055683;28;20024;-88
2023/06/04 09:09:00;;;;;;;5.10;2.45;;;;;;;;;;5048608;28;20027;-89
2023/06/04 09:11:30;;;;;;;3.03;2.00;;;;;;;;;;5039681;28;20060;-88
2023/06/04 09:14:06;;;;;;;4.15;2.58;;;;;;;;;;5051785;28;20101;-87
2023/06/04 09:16:41;;;;;;;3.03;2.47;;;;;;;;;;5057569;28;20086;-87
2023/06/04 09:19:09;;;;;;;2.67;2.08;;;;;;;;;;5062896;28;20021;-87
2023/06/04 09:22:02;;;;;;;3.25;1.73;;;;;;;;;;5062955;28;20078;-88
2023/06/04 09:24:52;;;;;;;4.88;2.35;;;;;;;;;;5060878;28;20112;-86
2023/06/04 09:27:37;;;;;;;4.57;2.47;;;;;;;;;;5044787;28;20497;-86
2023/06/04 09:30:05;;;;;;;3.10;2.05;;;;;;;;;;5070454;28;20060;-87
2023/06/04 09:32:34;;;;;;;5.38;3.10;;;;;;;;;;5055105;28;20075;-87
2023/06/04 09:35:14;;;;;;;4.80;2.53;;;;;;;;;;5056309;28;20126;-88
2023/06/04 09:37:52;;;;;;;3.67;1.80;;;;;;;;;;5058614;28;20120;-91
2023/06/04 09:40:18;;;;;;;3.38;1.85;;;;;;;;;;5050350;28;20025;-87
2023/06/04 09:43:01;;;;;;;5.60;2.03;;;;;;;;;;5054605;28;20029;-88
2023/06/04 09:45:47;;;;;;;3.00;2.22;;;;;;;;;;5046044;28;20035;-89
2023/06/04 09:48:28;;;;;;;4.07;2.42;;;;;;;;;;5060138;28;20055;-89
2023/06/04 09:51:19;;;;;;;;;;;;;;;;;;;;;
2023/06/04 09:54:11;;;;;;;4.45;2.38;;;;;;;;;;5052590;28;20028;-91
2023/06/04 09:57:10;;;;;;;;;;;;;;;;;;;;;
2023/06/04 09:59:43;;;;;;;;;;;;;;;;;;5053059;28;20029;-90
2023/06/04 10:02:20;;;;;;;2.38;1.90;;;;;;;;;;5059513;28;19923;-87
2023/06/04 10:05:13;;;;;;;3.10;2.63;;;;;;;;;;5057491;28;20070;-87
2023/06/04 10:07:52;;;;;;;3.78;2.92;;;;;;;;;;5058934;28;20045;-88
2023/06/04 10:11:18;;;;;;;3.10;2.08;;;;;;;;;;5074250;28;20036;-90
2023/06/04 10:14:00;;;;;;;5.53;2.58;;;;;;;;;;4994183;28;20080;-86
2023/06/04 10:16:26;;;;;;;4.20;2.80;;;;;;;;;;4995212;28;20037;-88
2023/06/04 10:18:56;;;;;;;3.42;1.90;;;;;;;;;;5054687;28;20035;-85
2023/06/04 10:21:23;;;;;;;4.00;2.55;;;;;;;;;;5057656;28;20029;-85
2023/06/04 10:23:50;;;;;;;4.50;2.10;;;;;;;;;;5062994;28;20016;-87
2023/06/04 10:26:16;;;;;;;3.33;2.47;;;;;;;;;;5059030;28;20025;-88
2023/06/04 10:28:43;;;;;;;5.18;2.75;;;;;;;;;;5063032;28;20041;-85
2023/06/04 10:31:10;;;;;;;7.78;3.22;;;;;;;;;;5062927;28;20101;-87
2023/06/04 10:33:36;;;;;;;4.70;2.97;;;;;;;;;;5062714;28;20032;-88
2023/06/04 10:36:18;;;;;;;4.38;3.17;;;;;;;;;;5063764;28;20029;-88
2023/06/04 10:38:55;;;;;;;2.70;1.85;;;;;;;;;;5062875;28;20025;-89
2023/06/04 10:41:23;;;;;;;2.13;1.48;;;;;;;;;;5067970;28;20171;-88
2023/06/04 10:43:50;;;;;;;3.00;2.17;;;;;;;;;;5067383;28;20493;-88
2023/06/04 10:46:20;;;;;;;3.15;1.73;;;;;;;;;;5057569;28;20123;-87
2023/06/04 10:48:53;;;;;;;4.63;2.47;;;;;;;;;;5062556;28;20106;-88
2023/06/04 10:51:32;;;;;;;3.13;2.15;;;;;;;;;;5065802;28;20088;-87
2023/06/04 10:53:59;;;;;;;3.47;2.30;;;;;;;;;;5054819;28;20024;-87
2023/06/04 10:56:37;;;;;;;3.88;2.15;;;;;;;;;;5054168;28;20028;-88
2023/06/04 10:59:16;;;;;;;2.58;1.70;;;;;;;;;;5062095;28;20024;-87
2023/06/04 11:01:42;;;;;;;3.47;2.63;;;;;;;;;;5054805;28;20162;-86
2023/06/04 11:04:25;;;;;;;3.17;2.25;;;;;;;;;;5059394;28;20112;-87
2023/06/04 11:07:02;;;;;;;3.15;2.30;;;;;;;;;;5058089;28;20048;-88
2023/06/04 11:09:27;;;;;;;4.13;2.33;;;;;;;;;;5053211;28;20026;-84
2023/06/04 11:11:59;;;;;;;3.17;2.17;;;;;;;;;;5054712;28;20389;-84
2023/06/04 11:14:25;;;;;;;2.72;2.10;;;;;;;;;;5057662;28;20447;-88
2023/06/04 11:16:51;;;;;;;4.45;2.17;;;;;;;;;;5055336;28;20119;-87
2023/06/04 11:19:16;;;;;;;2.67;2.15;;;;;;;;;;5057721;28;20167;-88
2023/06/04 11:21:42;;;;;;;2.17;1.70;;;;;;;;;;5065313;28;20024;-87
2023/06/04 11:24:07;;;;;;;2.20;1.63;;;;;;;;;;5059141;28;20040;-86
2023/06/04 11:26:37;;;;;;;3.58;2.53;;;;;;;;;;5068073;28;20024;-86
2023/06/04 11:29:05;;;;;;;;;;;;;;;;;;5056162;28;20048;-86
2023/06/04 11:31:42;;;;;;;3.00;1.88;;;;;;;;;;5062012;28;20433;-88
2023/06/04 11:34:08;;;;;;;2.40;1.95;;;;;;;;;;5063254;28;20377;-88
2023/06/04 11:36:33;;;;;;;3.83;2.25;;;;;;;;;;5060505;28;20028;-85
2023/06/04 11:39:06;;;;;;;2.95;2.15;;;;;;;;;;5062550;28;20025;-88
2023/06/04 11:41:33;;;;;;;2.78;2.03;;;;;;;;;;5070328;28;20078;-87
2023/06/04 11:44:06;;;;;;;9.40;1.35;;;;;;;;;;5051455;28;20519;-87
2023/06/04 11:46:35;;;;;;;8.93;2.00;;;;;;;;;;5059345;28;20595;-86
2023/06/04 11:49:04;;;;;;;3.58;2.67;;;;;;;;;;5053954;28;20040;-89
2023/06/04 11:51:30;;;;;;;2.85;1.95;;;;;;;;;;5052579;28;20025;-87
2023/06/04 11:53:56;;;;;;;2.30;1.73;;;;;;;;;;5047741;28;20071;-83
2023/06/04 11:56:25;;;;;;;2.22;1.75;;;;;;;;;;5049145;28;20106;-83
2023/06/04 11:58:51;;;;;;;1.92;1.65;;;;;;;;;;5057433;28;20465;-87
2023/06/04 12:01:17;;;;;;;3.65;2.35;;;;;;;;;;5054339;28;20059;-89
2023/06/04 12:03:43;;;;;;;5.90;3.50;;;;;;;;;;5056355;28;20021;-81
2023/06/04 12:06:16;;;;;;;3.78;2.90;;;;;;;;;;5056656;28;20531;-82
2023/06/04 12:08:53;;;;;;;3.40;2.55;;;;;;;;;;5056521;28;20031;-83
2023/06/04 12:11:31;;;;;;;6.45;2.92;;;;;;;;;;5055046;28;20402;-85
2023/06/04 12:13:57;;;;;;;4.47;2.90;;;;;;;;;;5061236;28;20388;-86
2023/06/04 12:16:23;;;;;;;4.50;2.85;;;;;;;;;;5054220;28;20412;-87
2023/06/04 12:18:50;;;;;;;4.97;3.13;;;;;;;;;;5050845;28;20025;-85
2023/06/04 12:21:32;;;;;;;6.97;4.13;;;;;;;;;;5059898;28;20040;-88
2023/06/04 12:24:07;;;;;;;8.95;5.38;;;;;;;;;;5052451;28;20085;-83
2023/06/04 12:26:37;;;;;;;11.50;5.05;;;;;;;;;;5060661;28;20024;-86
2023/06/04 12:29:17;;;;;;;4.78;2.95;;;;;;;;;;5059101;28;20044;-86
2023/06/04 12:31:43;;;;;;;;;;;;;;;;;;5057828;28;20044;-81
2023/06/04 12:34:09;;;;;;;3.85;2.85;;;;;;;;;;5054873;28;19917;-83
2023/06/04 12:36:35;;;;;;;4.05;2.97;;;;;;;;;;5058239;28;20415;-84
2023/06/04 12:39:03;;;;;;;5.63;3.10;;;;;;;;;;5053112;28;20053;-84
2023/06/04 12:41:29;;;;;;;4.10;2.88;;;;;;;;;;5059275;28;20500;-84
2023/06/04 12:43:55;;;;;;;3.80;2.63;;;;;;;;;;5060220;28;20020;-84
2023/06/04 12:46:21;;;;;;;5.50;3.50;;;;;;;;;;5058863;28;20547;-86
2023/06/04 12:48:48;;;;;;;4.22;2.75;;;;;;;;;;5053574;28;20026;-83
2023/06/04 12:51:13;;;;;;;3.85;2.78;;;;;;;;;;5059811;28;20032;-85
2023/06/04 12:53:40;;;;;;;4.45;3.42;;;;;;;;;;5059131;28;20077;-83
2023/06/04 12:56:05;;;;;;;4.50;3.20;;;;;;;;;;5048663;28;20032;-84
2023/06/04 12:58:31;;;;;;;4.32;3.58;;;;;;;;;;5055679;28;20539;-84
2023/06/04 13:00:57;;;;;;;5.80;3.35;;;;;;;;;;5059123;28;20029;-84
2023/06/04 13:03:22;;;;;;;3.95;3.05;;;;;;;;;;5052163;28;20035;-85
2023/06/04 13:05:48;;;;;;;4.78;3.70;;;;;;;;;;5066934;28;20380;-88
2023/06/04 13:08:14;;;;;;;4.30;2.45;;;;;;;;;;5048527;28;20104;-85
2023/06/04 13:10:40;;;;;;;5.28;3.85;;;;;;;;;;5057401;28;20119;-85
2023/06/04 13:13:05;;;;;;;4.05;2.75;;;;;;;;;;5049590;28;20544;-84
2023/06/04 13:15:31;;;;;;;5.40;3.10;;;;;;;;;;5050816;28;20013;-82
2023/06/04 13:17:56;;;;;;;4.78;2.88;;;;;;;;;;5052619;28;20023;-88
2023/06/04 13:20:22;;;;;;;3.28;2.85;;;;;;;;;;5053583;28;20044;-85
2023/06/04 13:22:47;;;;;;;5.00;3.30;;;;;;;;;;5054737;28;20028;-84
2023/06/04 13:25:13;;;;;;;3.95;2.97;;;;;;;;;;5052202;28;20021;-87
2023/06/04 13:27:39;;;;;;;2.85;2.00;;;;;;;;;;5050679;28;20132;-89
2023/06/04 13:30:08;;;;;;;3.92;3.10;;;;;;;;;;5050303;28;20025;-90
2023/06/04 13:32:35;;;;;;;3.22;2.67;;;;;;;;;;5051826;28;20045;-87
2023/06/04 13:35:00;;;;;;;4.22;2.85;;;;;;;;;;5048416;28;20547;-85
2023/06/04 13:37:26;;;;;;;3.88;2.78;;;;;;;;;;5056163;28;20025;-88
2023/06/04 13:39:51;;;;;;;5.53;2.58;;;;;;;;;;5067527;28;20028;-85
2023/06/04 13:42:17;;;;;;;4.07;3.05;;;;;;;;;;5052987;28;20032;-87
2023/06/04 13:44:42;;;;;;;2.53;1.75;;;;;;;;;;5055839;28;20025;-86
2023/06/04 13:47:08;;;;;;;2.80;2.30;;;;;;;;;;5058295;28;20082;-88
2023/06/04 13:49:34;;;;;;;4.22;3.00;;;;;;;;;;5053641;28;20108;-85
2023/06/04 13:51:59;;;;;;;4.00;2.85;;;;;;;;;;5054118;28;20040;-86
2023/06/04 13:54:25;;;;;;;2.67;1.92;;;;;;;;;;5059768;28;20037;-86
2023/06/04 13:56:50;;;;;;;2.85;2.10;;;;;;;;;;5061403;28;20029;-85
2023/06/04 13:59:15;;;;;;;3.35;2.78;;;;;;;;;;5061973;28;20109;-85
2023/06/04 14:01:41;;;;;;;3.15;2.50;;;;;;;;;;5056714;28;20064;-87
2023/06/04 14:04:07;;;;;;;4.95;3.05;;;;;;;;;;5046127;28;20021;-90
2023/06/04 14:06:32;;;;;;;15.30;3.70;;;;;;;;;;5059397;28;20385;-86
2023/06/04 14:08:59;;;;;;;4.05;2.85;;;;;;;;;;5050956;28;20023;-85
2023/06/04 14:11:24;;;;;;;5.53;3.22;;;;;;;;;;5053938;28;20396;-87
2023/06/04 14:13:49;;;;;;;5.30;3.08;;;;;;;;;;5064388;28;20024;-86
2023/06/04 14:16:15;;;;;;;5.53;2.97;;;;;;;;;;5064406;28;20104;-86
2023/06/04 14:18:40;;;;;;;3.67;2.95;;;;;;;;;;5064057;28;20052;-86
2023/06/04 14:21:06;;;;;;;3.40;2.45;;;;;;;;;;5060969;28;20025;-85
2023/06/04 14:23:31;;;;;;;6.60;4.22;;;;;;;;;;5062352;28;20040;-86
2023/06/04 14:25:57;;;;;;;8.80;3.22;;;;;;;;;;5062016;28;20112;-85
2023/06/04 14:28:22;;;;;;;3.75;2.28;;;;;;;;;;5054780;28;20106;-86
2023/06/04 14:30:48;;;;;;;3.35;2.10;;;;;;;;;;5058940;28;20084;-85
2023/06/04 14:33:13;;;;;;;2.00;1.80;;;;;;;;;;5065403;28;20036;-85
2023/06/04 14:35:44;;;;;;;3.33;2.80;;;;;;;;;;5065230;28;20075;-84
2023/06/04 14:38:09;;;;;;;4.68;2.97;;;;;;;;;;5061246;28;20051;-83
2023/06/04 14:40:35;;;;;;;5.90;2.75;;;;;;;;;;5063898;28;20047;-84
2023/06/04 14:43:01;;;;;;;2.80;2.53;;;;;;;;;;5061597;28;20024;-86
2023/06/04 14:45:26;;;;;;;3.42;2.33;;;;;;;;;;5056509;28;20108;-84
2023/06/04 14:47:52;;;;;;;2.97;2.25;;;;;;;;;;5067713;28;20078;-87
2023/06/04 14:50:18;;;;;;;2.75;2.08;;;;;;;;;;5052986;28;20061;-85
2023/06/04 14:52:44;;;;;;;3.15;2.70;;;;;;;;;;5056896;28;20465;-84